Time;durP1;ratioP1;P1;durP2;ratioP2;P2;SDS_P1;SDS_P2;PMS_P1;PMS_P2;Temp;Humidity;BMP_temperature;BMP_pressure;BME280_temperature;BME280_humidity;BME280_pressure;Samples;Min_cycle;Max_cycle;Signal;HPM_P1;HPM_P2
2023/06/27 00:02:20;;;;;;;15.50;10.85;;;16.10;99.90;;;;;;4991181;28;20058;-81
2023/06/27 00:04:49;;;;;;;16.23;10.20;;;16.20;99.90;;;;;;5003344;28;20141;-82
2023/06/27 00:07:16;;;;;;;14.63;11.05;;;16.10;99.90;;;;;;4992773;28;20058;-80
2023/06/27 00:09:43;;;;;;;11.88;9.65;;;16.10;99.90;;;;;;4992160;28;20058;-81
2023/06/27 00:12:11;;;;;;;12.65;9.35;;;16.00;99.90;;;;;;4992478;28;20045;-79
2023/06/27 00:14:38;;;;;;;17.83;10.85;;;16.00;99.90;;;;;;4992907;28;20050;-79
2023/06/27 00:17:07;;;;;;;14.32;10.95;;;15.90;99.90;;;;;;4991743;28;20101;-82
2023/06/27 00:19:35;;;;;;;16.30;11.30;;;16.00;99.90;;;;;;4992039;28;20050;-80
2023/06/27 00:22:09;;;;;;;17.30;12.38;;;16.00;99.90;;;;;;4992292;28;20134;-80
2023/06/27 00:24:36;;;;;;;15.80;10.82;;;16.10;99.90;;;;;;4991856;28;20089;-78
2023/06/27 00:27:04;;;;;;;14.27;10.55;;;16.10;99.90;;;;;;4993973;28;20459;-79
2023/06/27 00:29:32;;;;;;;13.88;11.48;;;16.10;99.90;;;;;;4993005;28;20034;-78
2023/06/27 00:31:59;;;;;;;16.45;11.05;;;15.90;99.90;;;;;;4974721;28;20046;-78
2023/06/27 00:34:26;;;;;;;14.02;10.63;;;15.90;99.90;;;;;;4973514;28;20475;-78
2023/06/27 00:36:54;;;;;;;16.70;11.10;;;15.90;99.90;;;;;;4974708;28;20042;-79
2023/06/27 00:39:22;;;;;;;15.98;11.00;;;15.80;99.90;;;;;;4974384;28;20070;-79
2023/06/27 00:41:50;;;;;;;13.75;10.85;;;15.80;99.90;;;;;;4973924;28;20046;-79
2023/06/27 00:44:17;;;;;;;11.65;8.77;;;15.80;99.90;;;;;;4973660;28;20050;-79
2023/06/27 00:46:49;;;;;;;14.55;10.05;;;15.80;99.90;;;;;;4972587;28;20384;-78
2023/06/27 00:49:19;;;;;;;14.60;11.25;;;15.80;99.90;;;;;;4991138;28;20100;-79
2023/06/27 00:51:48;;;;;;;19.63;10.50;;;15.90;99.90;;;;;;4973391;28;20418;-80
2023/06/27 00:54:17;;;;;;;12.65;10.48;;;15.90;99.90;;;;;;4973046;28;20039;-78
2023/06/27 00:56:48;;;;;;;12.48;10.02;;;16.00;99.90;;;;;;4973042;28;20042;-80
2023/06/27 00:59:16;;;;;;;12.85;9.82;;;15.90;99.90;;;;;;4989396;28;20046;-79
2023/06/27 01:01:45;;;;;;;13.07;11.07;;;15.90;99.90;;;;;;4990836;28;20050;-79
2023/06/27 01:04:13;;;;;;;15.00;11.13;;;15.90;99.90;;;;;;4990725;28;20073;-78
2023/06/27 01:06:49;;;;;;;15.27;10.13;;;15.90;99.90;;;;;;4991112;28;20050;-81
2023/06/27 01:09:26;;;;;;;17.73;10.15;;;15.90;99.90;;;;;;4973506;28;20049;-81
2023/06/27 01:12:00;;;;;;;14.57;10.18;;;15.70;99.90;;;;;;4973485;28;20149;-80
2023/06/27 01:14:30;;;;;;;18.13;10.55;;;15.70;99.90;;;;;;4972114;28;20504;-81
2023/06/27 01:17:00;;;;;;;12.75;10.48;;;15.70;99.90;;;;;;4995512;28;20046;-80
2023/06/27 01:19:31;;;;;;;15.38;10.90;;;15.70;99.90;;;;;;5010505;28;20038;-79
2023/06/27 01:22:04;;;;;;;12.15;9.75;;;15.70;99.90;;;;;;4974608;28;20510;-81
2023/06/27 01:24:36;;;;;;;13.20;9.98;;;15.70;99.90;;;;;;4991249;28;20125;-79
2023/06/27 01:27:04;;;;;;;14.68;10.73;;;15.50;99.90;;;;;;4990829;28;20121;-79
2023/06/27 01:29:32;;;;;;;16.67;11.40;;;15.50;99.90;;;;;;4989880;28;20584;-79
2023/06/27 01:32:08;;;;;;;13.68;10.95;;;15.50;99.90;;;;;;4987488;28;20137;-79
2023/06/27 01:34:44;;;;;;;13.77;10.52;;;15.60;99.90;;;;;;4988602;28;20057;-80
2023/06/27 01:37:18;;;;;;;16.52;9.98;;;15.60;99.90;;;;;;4988536;28;20085;-79
2023/06/27 01:39:51;;;;;;;13.18;10.38;;;15.60;99.90;;;;;;4991141;28;20062;-81
2023/06/27 01:42:21;;;;;;;15.45;10.68;;;15.50;99.90;;;;;;4989220;28;20044;-79
2023/06/27 01:44:50;;;;;;;15.40;10.75;;;15.40;99.90;;;;;;4988022;28;20136;-78
2023/06/27 01:47:19;;;;;;;15.57;10.63;;;15.30;99.90;;;;;;4972660;28;20047;-79
2023/06/27 01:49:46;;;;;;;16.88;10.43;;;15.20;99.90;;;;;;4990849;28;20042;-79
2023/06/27 01:52:14;;;;;;;14.88;10.30;;;15.10;99.90;;;;;;4990619;28;20052;-78
2023/06/27 01:54:42;;;;;;;15.48;11.45;;;15.00;99.90;;;;;;4972317;28;20034;-78
2023/06/27 01:57:11;;;;;;;16.52;12.25;;;15.00;99.90;;;;;;4972352;28;20629;-78
2023/06/27 01:59:39;;;;;;;17.67;11.27;;;14.90;99.90;;;;;;4988271;28;20053;-78
2023/06/27 02:02:07;;;;;;;18.55;11.82;;;14.90;99.90;;;;;;4971951;28;20056;-78
2023/06/27 02:04:34;;;;;;;17.98;10.98;;;14.90;99.90;;;;;;4988092;28;20475;-79
2023/06/27 02:07:01;;;;;;;15.48;11.57;;;14.90;99.90;;;;;;4972276;28;20050;-78
2023/06/27 02:09:28;;;;;;;14.52;10.30;;;15.00;99.90;;;;;;4972242;28;20137;-79
2023/06/27 02:11:56;;;;;;;15.82;10.40;;;14.90;99.90;;;;;;4989983;28;20054;-80
2023/06/27 02:14:24;;;;;;;20.75;10.73;;;14.90;99.90;;;;;;4988316;28;20125;-80
2023/06/27 02:16:51;;;;;;;16.88;11.13;;;14.90;99.90;;;;;;4971005;28;20137;-80
2023/06/27 02:19:19;;;;;;;13.85;10.77;;;14.90;99.90;;;;;;4990282;28;20054;-80
2023/06/27 02:21:49;;;;;;;16.35;11.70;;;14.90;99.90;;;;;;4971988;28;20038;-80
2023/06/27 02:24:19;;;;;;;14.38;11.20;;;15.00;99.90;;;;;;4970350;28;20506;-80
2023/06/27 02:26:46;;;;;;;15.77;11.27;;;14.90;99.90;;;;;;4971454;28;20049;-79
2023/06/27 02:29:13;;;;;;;18.08;10.60;;;14.90;99.90;;;;;;4955379;28;20049;-81
2023/06/27 02:31:42;;;;;;;17.05;11.30;;;14.80;99.90;;;;;;4989766;28;20129;-81
2023/06/27 02:34:09;;;;;;;19.48;11.43;;;14.80;99.90;;;;;;4973240;28;20042;-81
2023/06/27 02:36:36;;;;;;;18.33;11.88;;;14.70;99.90;;;;;;4991449;28;20050;-80
2023/06/27 02:39:04;;;;;;;17.83;10.98;;;14.70;99.90;;;;;;4973047;28;20042;-80
2023/06/27 02:41:33;;;;;;;13.75;11.07;;;14.80;99.90;;;;;;4988159;28;20494;-79
2023/06/27 02:44:03;;;;;;;15.25;10.45;;;14.90;99.90;;;;;;4971090;28;20038;-79
2023/06/27 02:46:30;;;;;;;16.42;10.88;;;14.90;99.90;;;;;;4989965;28;20038;-80
2023/06/27 02:48:59;;;;;;;17.48;10.50;;;15.00;99.90;;;;;;4988876;28;20142;-80
2023/06/27 02:51:26;;;;;;;14.43;10.77;;;15.00;99.90;;;;;;4987248;28;20105;-79
2023/06/27 02:53:53;;;;;;;12.85;10.55;;;14.90;99.90;;;;;;4971580;28;20038;-79
2023/06/27 02:56:21;;;;;;;14.65;11.30;;;14.80;99.90;;;;;;4971858;28;20074;-80
2023/06/27 02:58:49;;;;;;;17.30;11.15;;;14.80;99.90;;;;;;4971631;28;20054;-79
2023/06/27 03:01:17;;;;;;;12.75;10.40;;;14.70;99.90;;;;;;4987416;28;20054;-80
2023/06/27 03:03:45;;;;;;;12.88;10.77;;;14.70;99.90;;;;;;4971603;28;20046;-79
2023/06/27 03:06:15;;;;;;;19.27;11.05;;;14.70;99.90;;;;;;4989279;28;20123;-79
2023/06/27 03:08:43;;;;;;;19.08;10.93;;;14.70;99.90;;;;;;4989671;28;20178;-80
2023/06/27 03:11:13;;;;;;;17.52;11.27;;;14.60;99.90;;;;;;4973147;28;20049;-80
2023/06/27 03:13:40;;;;;;;16.50;11.18;;;14.60;99.90;;;;;;4972150;28;20083;-79
2023/06/27 03:16:09;;;;;;;16.00;11.63;;;14.70;99.90;;;;;;4987724;28;20089;-78
2023/06/27 03:18:39;;;;;;;13.90;11.15;;;14.80;99.90;;;;;;4973187;28;20062;-80
2023/06/27 03:21:06;;;;;;;13.65;10.50;;;14.90;99.90;;;;;;4975533;28;20043;-78
2023/06/27 03:23:35;;;;;;;16.13;10.70;;;15.00;99.90;;;;;;4975156;28;20045;-78
2023/06/27 03:26:02;;;;;;;18.05;11.57;;;15.00;99.90;;;;;;4993637;28;20077;-79
2023/06/27 03:28:29;;;;;;;20.70;13.20;;;14.90;99.90;;;;;;4992539;28;20038;-78
2023/06/27 03:30:57;;;;;;;20.27;12.93;;;15.00;99.90;;;;;;4991574;28;20137;-78
2023/06/27 03:33:24;;;;;;;18.05;12.90;;;14.90;99.90;;;;;;4992544;28;20046;-79
2023/06/27 03:35:56;;;;;;;16.20;12.48;;;15.00;99.90;;;;;;4974289;28;20042;-81
2023/06/27 03:38:24;;;;;;;15.73;11.63;;;15.00;99.90;;;;;;4975235;28;20042;-80
2023/06/27 03:40:53;;;;;;;14.75;12.05;;;15.10;99.90;;;;;;4975179;28;20141;-82
2023/06/27 03:43:21;;;;;;;16.30;11.98;;;15.10;99.90;;;;;;4992363;28;20039;-80
2023/06/27 03:45:48;;;;;;;16.20;12.95;;;15.20;99.90;;;;;;4991905;28;20035;-80
2023/06/27 03:48:15;;;;;;;18.55;16.17;;;15.20;99.90;;;;;;4991264;28;20089;-80
2023/06/27 03:50:42;;;;;;;20.10;15.80;;;15.40;99.90;;;;;;4975180;28;20051;-80
2023/06/27 03:53:10;;;;;;;19.10;14.65;;;15.50;99.90;;;;;;4972860;28;20038;-81
2023/06/27 03:55:40;;;;;;;16.55;13.50;;;15.60;99.90;;;;;;4975465;28;20081;-80
2023/06/27 03:58:09;;;;;;;15.90;12.15;;;16.10;99.90;;;;;;5004068;28;20050;-81
2023/06/27 04:00:37;;;;;;;17.25;10.50;;;17.10;99.90;;;;;;5003223;23;20049;-77
2023/06/27 04:03:04;;;;;;;14.13;10.77;;;18.20;99.90;;;;;;4995804;28;20069;-76
2023/06/27 04:05:32;;;;;;;15.38;10.10;;;19.40;99.90;;;;;;5007432;28;20042;-76
2023/06/27 04:08:00;;;;;;;13.23;9.70;;;20.70;99.90;;;;;;4992019;28;20054;-77
2023/06/27 04:10:28;;;;;;;11.85;8.80;;;21.70;99.90;;;;;;4993658;28;20057;-77
2023/06/27 04:12:55;;;;;;;13.38;9.20;;;22.60;99.90;;;;;;4992837;28;20069;-76
2023/06/27 04:15:24;;;;;;;13.57;9.13;;;21.90;99.90;;;;;;4994087;28;20066;-75
2023/06/27 04:17:51;;;;;;;20.00;10.65;;;22.60;99.90;;;;;;4992288;28;20065;-73
2023/06/27 04:20:19;;;;;;;11.35;8.30;;;23.30;99.90;;;;;;4993645;28;20035;-78
2023/06/27 04:22:46;;;;;;;15.13;9.07;;;24.20;99.90;;;;;;4993250;28;20116;-74
2023/06/27 04:25:13;;;;;;;10.05;8.73;;;25.00;99.90;;;;;;4992556;28;20038;-80
2023/06/27 04:27:41;;;;;;;12.18;8.40;;;25.90;99.90;;;;;;4992151;28;20538;-79
2023/06/27 04:30:10;;;;;;;14.40;8.05;;;26.60;99.90;;;;;;4993357;28;20100;-77
2023/06/27 04:32:39;;;;;;;12.60;7.97;;;27.10;99.90;;;;;;4991774;28;20442;-77
2023/06/27 04:35:07;;;;;;;14.55;8.52;;;27.30;99.90;;;;;;4992012;28;20042;-77
2023/06/27 04:37:34;;;;;;;13.75;7.72;;;27.00;99.90;;;;;;4992078;28;20041;-78
2023/06/27 04:40:01;;;;;;;10.25;8.63;;;27.70;99.90;;;;;;4992415;28;20138;-76
2023/06/27 04:42:29;;;;;;;9.60;7.25;;;28.50;99.90;;;;;;4990057;28;20046;-75
2023/06/27 04:44:58;;;;;;;14.05;8.05;;;29.20;99.90;;;;;;4989602;28;20038;-74
2023/06/27 04:47:26;;;;;;;9.00;7.72;;;29.10;99.90;;;;;;5006662;28;20058;-78
2023/06/27 04:49:54;;;;;;;11.23;7.85;;;28.90;99.90;;;;;;5223544;23;20304;-77
2023/06/27 04:52:21;;;;;;;9.30;7.50;;;29.00;99.90;;;;;;4965118;28;20117;-77
2023/06/27 04:54:52;;;;;;;15.48;8.35;;;28.40;99.90;;;;;;4970781;28;20450;-77
2023/06/27 04:57:19;;;;;;;14.00;11.00;;;28.50;99.90;;;;;;4970482;28;20047;-77
2023/06/27 04:59:46;;;;;;;12.10;7.30;;;29.30;99.90;;;;;;4969137;28;20079;-77
2023/06/27 05:02:14;;;;;;;11.13;9.45;;;30.20;99.90;;;;;;4961176;28;20043;-76
2023/06/27 05:04:43;;;;;;;13.75;9.48;;;31.10;99.90;;;;;;4960906;28;20050;-78
2023/06/27 05:07:12;;;;;;;11.48;8.43;;;31.70;99.90;;;;;;4962224;28;20074;-77
2023/06/27 05:09:39;;;;;;;12.48;8.35;;;31.90;99.90;;;;;;4959944;28;20130;-77
2023/06/27 05:12:07;;;;;;;13.45;8.68;;;32.50;99.90;;;;;;4957970;28;20195;-76
2023/06/27 05:14:37;;;;;;;9.98;8.73;;;32.70;99.90;;;;;;4975465;23;20046;-76
2023/06/27 05:17:07;;;;;;;15.35;9.30;;;31.00;99.90;;;;;;4979143;28;20042;-76
2023/06/27 05:19:34;;;;;;;10.02;8.30;;;31.30;99.90;;;;;;4981494;28;20078;-78
2023/06/27 05:22:02;;;;;;;10.75;8.75;;;31.40;99.90;;;;;;4980621;28;20046;-77
2023/06/27 05:24:30;;;;;;;11.00;8.75;;;31.80;99.90;;;;;;4985610;28;20055;-75
2023/06/27 05:26:58;;;;;;;12.25;8.85;;;31.30;99.90;;;;;;4983403;28;20050;-77
2023/06/27 05:29:25;;;;;;;11.70;8.65;;;32.40;99.90;;;;;;4996686;28;20051;-77
2023/06/27 05:31:52;;;;;;;14.02;9.82;;;33.40;99.90;;;;;;4992473;28;20046;-77
2023/06/27 05:34:19;;;;;;;12.90;8.70;;;34.30;99.90;;;;;;4988701;28;20050;-78
2023/06/27 05:36:47;;;;;;;12.10;9.90;;;34.90;99.90;;;;;;4973421;28;20042;-77
2023/06/27 05:39:14;;;;;;;13.82;12.13;;;35.20;99.90;;;;;;4994033;28;20055;-78
2023/06/27 05:41:42;;;;;;;11.27;10.07;;;35.60;99.90;;;;;;4992255;28;20065;-78
2023/06/27 05:44:10;;;;;;;11.13;9.18;;;35.40;99.90;;;;;;4989657;28;20069;-77
2023/06/27 05:46:39;;;;;;;10.95;9.63;;;35.30;99.90;;;;;;4994349;28;20034;-76
2023/06/27 05:49:07;;;;;;;11.80;9.50;;;35.10;99.90;;;;;;4996494;28;20077;-79
2023/06/27 05:51:35;;;;;;;14.18;9.30;;;35.10;99.90;;;;;;4996542;28;20046;-78
2023/06/27 05:54:02;;;;;;;10.48;9.40;;;33.30;99.90;;;;;;4994886;28;20050;-77
2023/06/27 05:56:29;;;;;;;12.07;9.57;;;32.00;99.90;;;;;;4998387;28;20130;-77
2023/06/27 05:58:58;;;;;;;11.93;9.25;;;32.20;99.90;;;;;;5002793;28;20054;-76
2023/06/27 06:01:25;;;;;;;12.35;9.30;;;32.30;99.90;;;;;;4988596;28;20155;-76
2023/06/27 06:03:53;;;;;;;12.35;9.07;;;31.60;99.90;;;;;;4980652;28;20157;-74
2023/06/27 06:06:21;;;;;;;11.27;9.20;;;31.90;99.90;;;;;;4982766;28;20062;-77
2023/06/27 06:08:48;;;;;;;12.60;9.88;;;32.30;99.90;;;;;;4956661;28;20042;-75
2023/06/27 06:11:15;;;;;;;11.75;9.70;;;33.20;99.90;;;;;;4980903;28;20058;-76
2023/06/27 06:13:43;;;;;;;12.05;10.35;;;34.00;99.90;;;;;;4982095;28;20129;-76
2023/06/27 06:16:11;;;;;;;17.65;15.73;;;34.60;99.90;;;;;;4981704;28;20105;-75
2023/06/27 06:18:38;;;;;;;12.13;10.20;;;34.70;99.90;;;;;;4979811;28;20515;-76
2023/06/27 06:21:13;;;;;;;11.65;10.02;;;34.10;99.90;;;;;;4982186;28;20072;-75
2023/06/27 06:23:41;;;;;;;10.90;9.80;;;34.00;99.90;;;;;;4983135;28;20561;-77
2023/06/27 06:26:09;;;;;;;11.30;10.10;;;34.20;99.90;;;;;;4980996;28;20054;-76
2023/06/27 06:28:39;;;;;;;15.73;10.70;;;34.20;99.90;;;;;;4980923;28;20038;-76
2023/06/27 06:31:06;;;;;;;15.27;11.32;;;34.00;99.90;;;;;;4981534;28;20142;-79
2023/06/27 06:33:35;;;;;;;12.70;10.10;;;32.60;99.90;;;;;;4982896;28;20060;-78
2023/06/27 06:36:04;;;;;;;13.00;10.00;;;31.50;99.90;;;;;;4979740;28;20035;-79
2023/06/27 06:38:31;;;;;;;12.80;9.70;;;31.40;99.90;;;;;;4980041;28;20042;-79
2023/06/27 06:40:58;;;;;;;13.10;9.00;;;31.70;99.90;;;;;;4983653;28;20052;-78
2023/06/27 06:43:26;;;;;;;11.13;9.77;;;31.70;99.90;;;;;;4982215;28;20092;-79
2023/06/27 06:45:54;;;;;;;13.05;10.00;;;31.70;99.90;;;;;;4984196;28;20125;-79
2023/06/27 06:48:21;;;;;;;14.70;10.13;;;30.70;99.90;;;;;;4978770;28;20525;-77
2023/06/27 06:50:51;;;;;;;10.48;8.93;;;29.00;99.90;;;;;;4961870;28;20074;-78
2023/06/27 06:53:19;;;;;;;13.48;8.88;;;28.20;99.90;;;;;;4986418;28;20060;-77
2023/06/27 06:55:46;;;;;;;14.60;9.40;;;28.30;99.90;;;;;;4980797;28;20039;-78
2023/06/27 06:58:13;;;;;;;15.02;10.35;;;27.80;99.90;;;;;;4982541;28;20042;-78
2023/06/27 07:00:40;;;;;;;12.38;9.68;;;28.10;99.90;;;;;;4982379;28;20123;-78
2023/06/27 07:03:09;;;;;;;15.75;9.63;;;28.40;99.90;;;;;;4985652;28;20099;-81
2023/06/27 07:05:36;;;;;;;15.23;9.50;;;28.60;99.90;;;;;;4983749;28;20115;-78
2023/06/27 07:08:06;;;;;;;11.20;9.20;;;28.30;99.90;;;;;;4981569;28;20104;-78
2023/06/27 07:10:34;;;;;;;15.38;8.93;;;28.40;99.90;;;;;;4981980;28;20556;-80
2023/06/27 07:13:01;;;;;;;16.25;10.32;;;28.50;99.90;;;;;;4980517;28;20047;-78
2023/06/27 07:15:29;;;;;;;14.30;10.50;;;28.50;99.90;;;;;;4967272;28;20073;-76
2023/06/27 07:17:56;;;;;;;15.15;11.15;;;28.40;99.90;;;;;;4965855;28;20085;-78
2023/06/27 07:20:24;;;;;;;11.70;9.40;;;28.30;99.90;;;;;;4962209;28;20085;-77
2023/06/27 07:22:51;;;;;;;15.85;11.50;;;28.30;99.90;;;;;;4978717;28;20086;-78
2023/06/27 07:25:20;;;;;;;14.27;10.75;;;28.30;99.90;;;;;;4982023;28;20042;-78
2023/06/27 07:27:50;;;;;;;12.27;9.90;;;28.20;99.90;;;;;;4978580;28;20055;-78
2023/06/27 07:30:17;;;;;;;14.75;10.85;;;28.30;99.90;;;;;;4981949;28;20062;-77
2023/06/27 07:32:44;;;;;;;12.68;10.05;;;28.40;99.90;;;;;;4980751;28;20043;-79
2023/06/27 07:35:11;;;;;;;13.65;10.05;;;28.60;99.90;;;;;;4979562;28;20042;-78
2023/06/27 07:37:39;;;;;;;14.05;10.00;;;28.60;99.90;;;;;;4979974;28;20069;-76
2023/06/27 07:40:07;;;;;;;15.45;10.20;;;28.70;99.90;;;;;;4980325;28;20599;-79
2023/06/27 07:42:37;;;;;;;16.25;11.65;;;28.90;99.90;;;;;;4978702;28;20101;-78
2023/06/27 07:45:05;;;;;;;15.45;11.27;;;29.00;99.90;;;;;;4979106;28;20065;-76
2023/06/27 07:47:32;;;;;;;18.05;10.75;;;28.60;99.90;;;;;;4978238;28;20031;-78
2023/06/27 07:49:59;;;;;;;17.80;11.88;;;28.50;99.90;;;;;;4981743;28;20050;-79
2023/06/27 07:52:30;;;;;;;17.65;10.40;;;28.50;99.90;;;;;;4978576;28;20050;-79
2023/06/27 07:54:57;;;;;;;13.38;10.65;;;28.70;99.90;;;;;;4980375;28;20510;-80
2023/06/27 07:57:24;;;;;;;11.80;9.70;;;29.00;99.90;;;;;;4980746;28;20126;-76
2023/06/27 07:59:53;;;;;;;13.52;9.20;;;29.00;99.90;;;;;;4980229;28;20043;-80
2023/06/27 08:02:20;;;;;;;14.43;10.63;;;28.60;99.90;;;;;;4979034;28;20129;-79
2023/06/27 08:04:48;;;;;;;12.20;9.77;;;28.60;99.90;;;;;;4988556;28;20046;-79
2023/06/27 08:07:17;;;;;;;12.20;9.60;;;28.80;99.90;;;;;;4970540;28;20080;-79
2023/06/27 08:09:45;;;;;;;12.57;9.57;;;29.00;99.90;;;;;;4986590;28;20046;-79
2023/06/27 08:12:12;;;;;;;15.52;10.65;;;29.20;99.90;;;;;;4983499;28;20054;-77
2023/06/27 08:14:42;;;;;;;14.27;10.07;;;29.40;99.90;;;;;;4982815;28;20056;-80
2023/06/27 08:17:11;;;;;;;12.50;10.30;;;29.10;99.90;;;;;;4982124;28;20311;-78
2023/06/27 08:19:38;;;;;;;12.50;8.93;;;28.70;99.90;;;;;;4982517;28;20413;-81
2023/06/27 08:22:05;;;;;;;11.80;9.63;;;28.30;99.90;;;;;;4965095;28;20118;-78
2023/06/27 08:24:32;;;;;;;15.73;11.75;;;28.50;99.90;;;;;;4982852;28;20057;-77
2023/06/27 08:27:00;;;;;;;14.30;10.75;;;28.80;99.90;;;;;;4983691;28;20062;-77
2023/06/27 08:29:27;;;;;;;11.63;9.50;;;29.00;99.90;;;;;;4982971;28;20121;-79
2023/06/27 08:31:58;;;;;;;10.98;9.55;;;29.20;99.90;;;;;;4981102;28;20070;-78
2023/06/27 08:34:29;;;;;;;13.10;10.68;;;29.20;99.90;;;;;;4985252;28;20698;-78
2023/06/27 08:36:57;;;;;;;16.52;10.65;;;29.50;99.90;;;;;;4986746;28;20053;-79
2023/06/27 08:39:25;;;;;;;10.43;9.32;;;29.70;99.90;;;;;;4982663;28;20043;-80
2023/06/27 08:41:53;;;;;;;10.40;9.10;;;29.50;99.90;;;;;;4983351;28;20074;-78
2023/06/27 08:44:20;;;;;;;12.00;9.50;;;29.40;99.90;;;;;;4982988;28;20063;-77
2023/06/27 08:46:49;;;;;;;11.30;10.20;;;29.10;99.90;;;;;;4981388;28;20065;-78
2023/06/27 08:49:22;;;;;;;13.52;10.68;;;28.90;99.90;;;;;;4983361;28;20121;-77
2023/06/27 08:51:51;;;;;;;13.07;10.60;;;29.10;99.90;;;;;;4982412;28;20564;-79
2023/06/27 08:54:24;;;;;;;9.90;8.82;;;29.20;99.90;;;;;;4989957;28;20561;-77
2023/06/27 08:56:53;;;;;;;10.70;9.55;;;29.30;99.90;;;;;;4983582;28;20153;-79
2023/06/27 08:59:25;;;;;;;10.93;9.60;;;29.40;99.90;;;;;;4982812;28;20043;-77
2023/06/27 09:01:53;;;;;;;16.85;9.18;;;29.40;99.90;;;;;;4980373;28;20046;-77
2023/06/27 09:04:21;;;;;;;11.00;8.85;;;29.60;99.90;;;;;;4983191;28;20134;-77
2023/06/27 09:06:50;;;;;;;9.93;8.75;;;29.60;99.90;;;;;;4982428;28;20047;-80
2023/06/27 09:09:18;;;;;;;12.20;9.40;;;29.60;99.90;;;;;;4983253;28;20124;-79
2023/06/27 09:11:46;;;;;;;21.73;10.85;;;29.30;99.90;;;;;;4986305;28;20050;-80
2023/06/27 09:14:13;;;;;;;12.68;9.30;;;29.60;99.90;;;;;;4978390;28;20043;-79
2023/06/27 09:16:41;;;;;;;14.35;11.38;;;29.80;99.90;;;;;;4979827;28;20782;-80
2023/06/27 09:19:09;;;;;;;15.15;13.13;;;29.80;99.90;;;;;;4984233;28;20042;-79
2023/06/27 09:21:36;;;;;;;14.73;10.45;;;29.90;99.90;;;;;;4970946;28;20414;-82
2023/06/27 09:24:14;;;;;;;11.38;8.07;;;30.20;99.90;;;;;;5004212;28;20106;-82
2023/06/27 09:26:41;;;;;;;9.50;7.93;;;30.30;99.90;;;;;;5005785;28;20057;-84
2023/06/27 09:29:08;;;;;;;8.63;7.55;;;30.40;99.90;;;;;;5011000;28;20506;-81
2023/06/27 09:31:38;;;;;;;14.00;12.40;;;30.80;99.90;;;;;;4975043;28;20046;-81
2023/06/27 09:34:09;;;;;;;10.85;7.72;;;31.00;99.90;;;;;;4971490;28;20055;-82
2023/06/27 09:36:37;;;;;;;10.05;8.32;;;31.10;99.90;;;;;;4970293;28;20043;-80
2023/06/27 09:39:19;;;;;;;9.25;8.35;;;30.90;99.90;;;;;;4989463;28;20043;-81
2023/06/27 09:41:47;;;;;;;10.45;9.05;;;30.90;99.90;;;;;;4987991;28;20045;-82
2023/06/27 09:44:19;;;;;;;10.90;8.98;;;30.90;99.90;;;;;;4964400;28;20110;-81
2023/06/27 09:46:47;;;;;;;10.43;9.15;;;31.20;99.90;;;;;;4981434;28;20375;-81
2023/06/27 09:49:16;;;;;;;12.73;8.20;;;31.20;99.90;;;;;;4980265;28;20126;-83
2023/06/27 09:51:46;;;;;;;11.55;8.45;;;31.20;99.90;;;;;;4994741;28;20070;-81
2023/06/27 09:54:14;;;;;;;12.68;9.75;;;31.10;99.90;;;;;;5000394;28;20065;-81
2023/06/27 09:56:42;;;;;;;11.60;9.35;;;31.20;99.90;;;;;;5005378;28;20081;-83
2023/06/27 09:59:11;;;;;;;9.35;8.38;;;31.40;99.90;;;;;;4994831;28;20129;-79
2023/06/27 10:01:39;;;;;;;12.30;8.20;;;31.20;99.90;;;;;;4978997;28;20058;-81
2023/06/27 10:04:08;;;;;;;9.48;8.48;;;31.20;99.90;;;;;;5002310;28;20050;-79
2023/06/27 10:06:37;;;;;;;11.13;8.65;;;30.60;99.90;;;;;;4988185;28;20118;-80
2023/06/27 10:09:04;;;;;;;10.35;8.75;;;30.90;99.90;;;;;;4988030;28;20034;-79
2023/06/27 10:11:32;;;;;;;10.73;8.70;;;30.80;99.90;;;;;;4983242;28;20101;-79
2023/06/27 10:14:04;;;;;;;11.45;8.65;;;30.90;99.90;;;;;;4983870;28;20066;-79
2023/06/27 10:16:39;;;;;;;9.02;8.13;;;31.30;99.90;;;;;;4946883;29;20613;-83
2023/06/27 10:19:07;;;;;;;10.32;9.13;;;31.40;99.90;;;;;;4943299;29;20051;-80
2023/06/27 10:33:42;;;;;;;13.13;10.68;;;31.20;99.90;;;;;;4833675;29;20424;-84
2023/06/27 10:36:17;;;;;;;12.45;9.90;;;30.50;99.90;;;;;;4816374;29;20046;-77
2023/06/27 10:39:34;;;;;;;11.77;10.63;;;30.40;99.90;;;;;;4835821;29;20099;-85
2023/06/27 10:59:11;;;;;;;9.40;8.18;;;31.40;99.90;;;;;;4063088;26;20057;-85
2023/06/27 11:13:32;;;;;;;11.35;10.10;;;31.50;99.90;;;;;;4922035;29;20050;-84
2023/06/27 13:18:20;;;;;;;;;;;;;;;;;;;;;
2023/06/27 14:13:22;;;;;;;10.00;8.23;;;31.90;99.90;;;;;;4738248;30;20090;-84
2023/06/27 14:15:56;;;;;;;10.60;8.77;;;30.80;99.90;;;;;;4745325;30;20048;-83
2023/06/27 14:18:24;;;;;;;12.77;9.23;;;30.40;99.90;;;;;;4723684;30;20120;-84
2023/06/27 14:21:16;;;;;;;13.10;10.00;;;30.00;99.90;;;;;;4742188;30;20061;-85
2023/06/27 14:23:45;;;;;;;11.15;8.75;;;29.60;99.90;;;;;;4748087;30;20051;-82
2023/06/27 14:26:18;;;;;;;10.80;9.70;;;29.40;99.90;;;;;;4722195;30;20090;-84
2023/06/27 14:28:57;;;;;;;10.43;9.43;;;29.30;99.90;;;;;;4729667;30;20052;-83
2023/06/27 14:31:35;;;;;;;14.82;9.98;;;28.90;99.90;;;;;;4756233;30;20309;-81
2023/06/27 14:40:01;;;;;;;13.90;9.20;;;28.20;99.90;;;;;;4612654;31;20147;-84
2023/06/27 14:53:31;;;;;;;13.98;9.90;;;27.20;99.90;;;;;;4762710;29;20058;-84
2023/06/27 15:04:05;;;;;;;11.05;9.23;;;27.30;99.90;;;;;;4675591;30;20061;-79
2023/06/27 15:06:36;;;;;;;11.43;9.27;;;27.40;99.90;;;;;;4841159;29;20045;-84
2023/06/27 15:13:15;;;;;;;10.20;9.10;;;26.90;99.90;;;;;;4764812;29;20535;-85
2023/06/27 15:39:02;;;;;;;16.13;11.23;;;26.00;99.90;;;;;;4806404;29;20061;-79
2023/06/27 15:41:32;;;;;;;12.73;10.45;;;25.70;99.90;;;;;;4822921;29;20046;-82
2023/06/27 15:51:09;;;;;;;18.48;12.23;;;24.30;99.90;;;;;;4760121;30;20100;-81
2023/06/27 15:53:36;;;;;;;16.55;12.15;;;23.20;99.90;;;;;;4784614;29;20051;-78
2023/06/27 15:56:06;;;;;;;19.60;13.20;;;22.40;99.90;;;;;;4782064;29;20074;-79
2023/06/27 16:01:23;;;;;;;15.60;13.88;;;21.20;99.90;;;;;;4771594;29;20063;-77
2023/06/27 16:03:55;;;;;;;21.33;16.65;;;21.10;99.90;;;;;;4822951;29;20050;-76
2023/06/27 16:06:23;;;;;;;27.30;20.45;;;21.20;99.90;;;;;;4821418;29;20431;-78
2023/06/27 16:08:50;;;;;;;22.63;18.73;;;21.30;99.90;;;;;;4820785;29;20039;-80
2023/06/27 16:11:19;;;;;;;43.17;34.60;;;21.40;99.90;;;;;;4817561;29;20062;-79
2023/06/27 16:13:46;;;;;;;43.85;37.72;;;21.40;99.90;;;;;;4819238;29;20125;-79
2023/06/27 16:16:14;;;;;;;25.30;20.25;;;21.40;99.90;;;;;;4822100;29;20392;-78
2023/06/27 16:18:44;;;;;;;24.27;19.85;;;21.70;99.90;;;;;;4818603;29;20050;-76
2023/06/27 16:21:12;;;;;;;17.80;14.85;;;21.90;99.90;;;;;;4807140;29;20058;-75
2023/06/27 16:23:39;;;;;;;17.55;15.65;;;22.10;99.90;;;;;;4835181;29;20113;-78
2023/06/27 16:26:06;;;;;;;17.35;15.55;;;22.50;99.90;;;;;;4829403;29;20046;-78
2023/06/27 16:28:38;;;;;;;14.77;13.27;;;22.70;99.90;;;;;;4825527;29;20055;-75
2023/06/27 16:31:05;;;;;;;13.20;11.80;;;23.20;99.90;;;;;;4823874;29;20057;-77
2023/06/27 16:33:33;;;;;;;13.82;12.27;;;23.20;99.90;;;;;;4823732;29;20054;-77
2023/06/27 16:36:00;;;;;;;13.80;12.20;;;23.10;99.90;;;;;;4824923;29;20138;-75
2023/06/27 16:38:28;;;;;;;13.73;12.27;;;23.10;99.90;;;;;;4810148;29;20050;-76
2023/06/27 16:40:55;;;;;;;14.05;12.65;;;23.10;99.90;;;;;;4827089;29;20091;-77
2023/06/27 16:43:22;;;;;;;14.90;11.93;;;23.20;99.90;;;;;;4823830;29;20062;-75
2023/06/27 16:45:51;;;;;;;16.25;11.25;;;23.00;99.90;;;;;;4808040;29;20058;-75
2023/06/27 16:48:18;;;;;;;13.50;11.48;;;23.00;99.90;;;;;;4824057;29;20054;-75
2023/06/27 16:50:56;;;;;;;11.52;10.32;;;23.00;99.90;;;;;;4823063;29;20137;-77
2023/06/27 16:53:24;;;;;;;18.65;10.55;;;23.00;99.90;;;;;;4822756;29;20058;-79
2023/06/27 16:55:51;;;;;;;18.27;10.32;;;23.10;99.90;;;;;;4823260;29;20045;-76
2023/06/27 16:58:18;;;;;;;12.20;8.23;;;23.10;99.90;;;;;;4806900;29;20039;-76
2023/06/27 17:00:46;;;;;;;17.98;9.30;;;23.00;99.90;;;;;;4821810;29;20072;-75
2023/06/27 17:03:14;;;;;;;14.50;9.02;;;23.00;99.90;;;;;;4823000;29;20054;-76
2023/06/27 17:05:42;;;;;;;13.80;9.20;;;23.00;99.90;;;;;;4808591;29;21371;-75
2023/06/27 17:08:09;;;;;;;14.70;9.60;;;23.10;99.90;;;;;;4808362;29;20042;-79
2023/06/27 17:10:40;;;;;;;11.18;9.13;;;23.20;99.90;;;;;;4824113;29;20121;-75
2023/06/27 17:13:08;;;;;;;11.82;9.65;;;23.20;99.90;;;;;;4824941;29;20054;-76
2023/06/27 17:18:07;;;;;;;11.27;9.40;;;23.10;99.90;;;;;;4822191;29;20042;-83
2023/06/27 17:20:36;;;;;;;12.18;9.25;;;23.10;99.90;;;;;;4808606;29;20042;-83
2023/06/27 17:23:03;;;;;;;14.93;11.57;;;23.10;99.90;;;;;;4824057;29;20066;-90